Time;durP1;ratioP1;P1;durP2;ratioP2;P2;SDS_P1;SDS_P2;PMS_P1;PMS_P2;Temp;Humidity;BMP_temperature;BMP_pressure;BME280_temperature;BME280_humidity;BME280_pressure;Samples;Min_cycle;Max_cycle;Signal;HPM_P1;HPM_P2
2023/01/09 00:01:47;;;;;;;4.03;1.50;;;7.80;99.10;;;;;;4961288;28;20164;-86
2023/01/09 00:04:14;;;;;;;2.73;1.40;;;8.00;99.90;;;;;;4977820;28;20169;-86
2023/01/09 00:06:42;;;;;;;2.17;1.10;;;7.80;99.90;;;;;;4969074;28;20204;-86
2023/01/09 00:09:11;;;;;;;2.60;1.30;;;7.70;99.90;;;;;;4959569;28;20188;-86
2023/01/09 00:11:37;;;;;;;1.80;1.10;;;7.70;99.90;;;;;;4957077;28;20704;-86
2023/01/09 00:14:03;;;;;;;2.67;1.20;;;7.70;99.90;;;;;;4956950;29;20245;-86
2023/01/09 00:16:29;;;;;;;3.63;1.20;;;7.70;99.90;;;;;;4957737;28;20641;-85
2023/01/09 00:18:55;;;;;;;2.60;1.13;;;7.60;99.90;;;;;;4960706;28;20188;-86
2023/01/09 00:21:21;;;;;;;4.40;1.47;;;7.60;99.90;;;;;;4966712;28;20176;-85
2023/01/09 00:23:46;;;;;;;1.93;1.27;;;7.80;99.90;;;;;;4979210;28;20172;-84
2023/01/09 00:26:16;;;;;;;3.10;1.40;;;7.70;99.90;;;;;;4960190;28;20283;-86
2023/01/09 00:28:43;;;;;;;3.97;1.20;;;7.70;99.90;;;;;;4968921;28;20645;-87
2023/01/09 00:31:10;;;;;;;2.13;1.23;;;7.60;99.90;;;;;;4967417;28;20172;-86
2023/01/09 00:33:42;;;;;;;2.90;1.10;;;7.60;99.90;;;;;;4960676;28;20176;-86
2023/01/09 00:36:09;;;;;;;5.50;1.33;;;7.60;99.90;;;;;;4961673;28;20687;-86
2023/01/09 00:38:36;;;;;;;3.30;1.30;;;7.50;99.90;;;;;;4975003;28;20164;-85
2023/01/09 00:41:05;;;;;;;4.33;1.30;;;7.50;99.90;;;;;;4977327;28;20208;-84
2023/01/09 00:43:34;;;;;;;3.10;1.33;;;7.50;99.90;;;;;;4981631;28;20188;-85
2023/01/09 00:46:06;;;;;;;3.13;1.30;;;7.30;99.90;;;;;;4978259;29;20184;-85
2023/01/09 00:48:48;;;;;;;3.07;1.33;;;7.50;99.90;;;;;;4966593;29;20172;-85
2023/01/09 00:51:16;;;;;;;4.47;1.30;;;7.50;99.90;;;;;;4975518;28;20177;-84
2023/01/09 00:54:32;;;;;;;2.97;1.37;;;7.40;99.90;;;;;;4973273;28;20181;-84
2023/01/09 00:57:00;;;;;;;2.30;1.20;;;7.50;99.90;;;;;;4960085;28;20165;-85
2023/01/09 00:59:26;;;;;;;2.10;1.27;;;7.50;99.90;;;;;;4958491;28;20188;-85
2023/01/09 01:01:52;;;;;;;4.13;1.27;;;7.40;99.90;;;;;;4958095;28;20188;-86
2023/01/09 01:09:46;;;;;;;3.70;1.13;;;7.30;99.90;;;;;;4959701;29;20259;-85
2023/01/09 01:12:12;;;;;;;4.37;1.27;;;7.30;99.90;;;;;;4958086;28;20672;-85
2023/01/09 01:14:39;;;;;;;3.77;1.20;;;7.30;99.90;;;;;;4958506;28;20173;-85
2023/01/09 01:17:05;;;;;;;2.03;1.17;;;7.30;99.90;;;;;;4957531;28;20252;-85
2023/01/09 01:19:32;;;;;;;4.80;1.33;;;7.30;99.90;;;;;;4959566;28;20264;-85
2023/01/09 01:21:58;;;;;;;3.53;1.17;;;7.30;99.90;;;;;;4958642;28;20227;-85
2023/01/09 01:24:24;;;;;;;2.57;1.23;;;7.40;99.90;;;;;;4957703;28;20180;-85
2023/01/09 01:26:49;;;;;;;4.67;1.30;;;7.50;99.90;;;;;;4957949;28;20214;-85
2023/01/09 01:29:15;;;;;;;4.27;1.50;;;7.40;99.90;;;;;;4957989;28;20649;-85
2023/01/09 01:31:41;;;;;;;2.83;1.00;;;7.40;99.90;;;;;;4958852;28;20187;-85
2023/01/09 01:34:07;;;;;;;3.07;1.60;;;7.40;99.90;;;;;;4957791;28;20235;-85
2023/01/09 01:36:33;;;;;;;3.50;1.20;;;7.40;99.90;;;;;;4974462;28;20164;-85
2023/01/09 01:38:58;;;;;;;5.07;1.30;;;7.30;99.90;;;;;;4975871;28;20176;-84
2023/01/09 01:41:28;;;;;;;5.13;1.30;;;7.20;99.90;;;;;;4979050;28;20263;-85
2023/01/09 01:43:58;;;;;;;3.07;1.37;;;7.30;99.90;;;;;;4966203;28;20176;-85
2023/01/09 01:46:24;;;;;;;6.10;1.70;;;7.20;99.90;;;;;;4958260;28;20307;-85
2023/01/09 01:48:58;;;;;;;6.20;1.40;;;7.40;99.90;;;;;;4958486;28;20192;-85
2023/01/09 01:51:27;;;;;;;5.67;1.50;;;7.40;99.90;;;;;;4957795;28;20662;-85
2023/01/09 01:53:59;;;;;;;6.33;1.30;;;7.30;99.90;;;;;;4957920;28;20168;-85
2023/01/09 01:56:36;;;;;;;8.17;1.30;;;7.30;99.90;;;;;;4957133;28;20261;-85
2023/01/09 01:59:11;;;;;;;4.27;1.20;;;7.40;99.90;;;;;;4961348;28;20184;-86
2023/01/09 02:01:42;;;;;;;5.03;1.47;;;7.30;99.90;;;;;;4958177;28;20204;-85
2023/01/09 02:04:08;;;;;;;4.60;1.20;;;7.30;99.90;;;;;;4956549;28;20177;-86
2023/01/09 02:06:34;;;;;;;4.17;1.30;;;7.30;99.50;;;;;;4957953;28;20275;-85
2023/01/09 02:09:03;;;;;;;6.60;1.53;;;7.30;99.50;;;;;;4956847;28;20180;-85
2023/01/09 02:11:29;;;;;;;3.87;1.10;;;7.30;99.10;;;;;;4956850;28;20275;-85
2023/01/09 02:13:56;;;;;;;6.27;1.47;;;7.40;98.80;;;;;;4956977;28;20184;-85
2023/01/09 02:16:51;;;;;;;5.50;1.27;;;7.40;97.60;;;;;;4959082;28;20633;-86
2023/01/09 02:19:53;;;;;;;4.27;1.60;;;7.40;97.60;;;;;;4961143;28;20550;-85
2023/01/09 02:22:34;;;;;;;3.97;1.10;;;7.40;97.70;;;;;;4958984;28;20297;-85
2023/01/09 02:25:35;;;;;;;4.93;1.57;;;7.40;97.60;;;;;;4962795;28;20187;-85
2023/01/09 02:28:22;;;;;;;4.00;1.33;;;7.50;97.50;;;;;;4970496;28;20203;-86
2023/01/09 02:31:14;;;;;;;4.20;1.20;;;7.50;96.30;;;;;;4973553;28;20281;-85
2023/01/09 02:33:59;;;;;;;5.90;1.40;;;7.40;96.50;;;;;;4980287;28;20171;-86
2023/01/09 02:36:35;;;;;;;5.20;1.53;;;7.50;96.50;;;;;;4980445;28;20187;-85
2023/01/09 02:39:21;;;;;;;7.13;1.90;;;7.50;95.70;;;;;;4978725;28;20223;-85
2023/01/09 02:41:59;;;;;;;3.87;1.10;;;7.50;95.30;;;;;;4966970;28;20287;-85
2023/01/09 02:44:50;;;;;;;3.67;1.20;;;7.60;95.30;;;;;;4958712;28;20188;-85
2023/01/09 02:47:32;;;;;;;4.93;1.87;;;7.60;95.00;;;;;;4970249;28;20204;-85
2023/01/09 02:50:02;;;;;;;5.40;1.27;;;7.70;94.20;;;;;;4960145;28;20233;-86
2023/01/09 02:53:20;;;;;;;2.73;1.23;;;7.70;92.30;;;;;;4957222;29;20254;-85
2023/01/09 02:56:09;;;;;;;5.67;1.40;;;7.70;92.30;;;;;;4932615;29;20223;-85
2023/01/09 02:59:12;;;;;;;5.80;1.27;;;7.70;91.20;;;;;;4956930;28;20367;-86
2023/01/09 03:02:12;;;;;;;9.47;2.57;;;7.70;90.00;;;;;;4956451;28;20188;-85
2023/01/09 03:04:58;;;;;;;8.07;1.43;;;7.70;90.50;;;;;;4975268;28;20179;-84
2023/01/09 03:07:35;;;;;;;6.57;1.77;;;7.70;90.90;;;;;;4959308;28;20187;-86
2023/01/09 03:10:25;;;;;;;4.20;1.30;;;7.90;90.90;;;;;;4958313;28;20601;-85
2023/01/09 03:12:53;;;;;;;6.33;1.70;;;7.80;90.80;;;;;;4959636;28;20176;-84
2023/01/09 03:15:25;;;;;;;3.83;1.30;;;7.70;90.60;;;;;;4962216;28;20220;-86
2023/01/09 03:17:52;;;;;;;6.00;1.40;;;7.70;90.20;;;;;;4975416;29;20204;-86
2023/01/09 03:20:23;;;;;;;4.97;1.10;;;7.80;90.70;;;;;;4978301;28;20180;-84
2023/01/09 03:23:00;;;;;;;3.53;1.10;;;7.80;90.30;;;;;;4979218;28;20192;-85
2023/01/09 03:25:29;;;;;;;5.83;1.40;;;7.80;88.00;;;;;;4975864;28;20172;-86
2023/01/09 03:28:02;;;;;;;8.23;1.70;;;7.80;88.70;;;;;;4967612;28;20272;-86
2023/01/09 03:30:30;;;;;;;4.40;1.33;;;7.80;89.00;;;;;;4956537;28;20645;-86
2023/01/09 03:32:57;;;;;;;6.87;1.40;;;7.90;86.40;;;;;;4956764;28;20180;-85
2023/01/09 03:35:24;;;;;;;3.93;1.40;;;7.90;85.90;;;;;;4956355;28;20169;-85
2023/01/09 03:37:50;;;;;;;5.17;1.70;;;7.80;87.90;;;;;;4955533;28;20615;-85
2023/01/09 03:40:17;;;;;;;5.77;1.53;;;7.80;89.30;;;;;;4956171;28;20263;-85
2023/01/09 03:42:43;;;;;;;7.70;1.40;;;7.80;88.10;;;;;;4955879;28;20195;-85
2023/01/09 03:45:09;;;;;;;5.90;1.53;;;7.80;87.80;;;;;;4955418;28;20179;-85
2023/01/09 03:47:35;;;;;;;8.07;1.97;;;7.80;86.60;;;;;;4955316;28;20192;-85
2023/01/09 03:50:00;;;;;;;8.37;1.50;;;7.90;84.50;;;;;;4955049;28;20305;-85
2023/01/09 03:52:26;;;;;;;5.40;1.50;;;7.90;81.00;;;;;;4955888;28;20208;-86
2023/01/09 03:54:51;;;;;;;6.83;1.50;;;7.90;81.10;;;;;;4955955;28;20181;-86
2023/01/09 03:57:17;;;;;;;8.03;1.83;;;8.00;78.20;;;;;;4955947;28;20687;-85
2023/01/09 03:59:43;;;;;;;3.17;1.33;;;8.00;77.80;;;;;;4955503;28;20196;-84
2023/01/09 04:02:09;;;;;;;9.63;1.87;;;8.00;79.50;;;;;;4956036;28;20180;-85
2023/01/09 04:04:35;;;;;;;6.10;2.00;;;8.00;78.40;;;;;;4956062;28;20218;-85
2023/01/09 04:07:01;;;;;;;4.67;1.27;;;8.20;76.50;;;;;;4955836;28;20644;-85
2023/01/09 04:09:26;;;;;;;7.97;2.20;;;8.10;75.60;;;;;;4956355;28;20179;-85
2023/01/09 04:11:54;;;;;;;7.93;2.00;;;8.10;77.50;;;;;;4954926;28;20172;-85
2023/01/09 04:14:20;;;;;;;5.33;1.60;;;8.10;77.70;;;;;;4956041;28;20183;-85
2023/01/09 04:16:45;;;;;;;6.57;1.80;;;8.20;76.70;;;;;;4958613;28;20208;-84
2023/01/09 04:19:11;;;;;;;5.67;1.70;;;8.30;73.40;;;;;;4970964;28;20176;-84
2023/01/09 04:21:36;;;;;;;6.37;1.60;;;8.30;72.50;;;;;;4955026;28;20182;-85
2023/01/09 04:24:02;;;;;;;8.67;2.03;;;8.40;71.00;;;;;;4956606;28;20161;-85
2023/01/09 04:26:28;;;;;;;8.90;2.33;;;8.30;69.90;;;;;;4955087;28;20184;-86
2023/01/09 04:28:54;;;;;;;7.67;1.60;;;8.30;70.40;;;;;;4955321;28;20316;-86
2023/01/09 04:31:19;;;;;;;6.77;2.00;;;8.30;70.70;;;;;;4955865;29;20180;-86
2023/01/09 04:33:45;;;;;;;10.57;2.70;;;8.30;70.20;;;;;;4955876;28;20168;-85
2023/01/09 04:36:11;;;;;;;6.47;2.07;;;8.30;71.40;;;;;;4955980;28;20177;-85
2023/01/09 04:38:37;;;;;;;7.57;2.37;;;8.30;70.90;;;;;;4957593;28;20633;-85
2023/01/09 04:41:02;;;;;;;8.07;2.53;;;8.30;70.50;;;;;;4965384;28;20220;-85
2023/01/09 04:43:28;;;;;;;8.97;2.53;;;8.30;71.80;;;;;;4970302;28;20207;-85
2023/01/09 04:45:55;;;;;;;9.67;2.57;;;8.30;71.90;;;;;;4971582;28;20188;-84
2023/01/09 04:48:23;;;;;;;8.17;1.87;;;8.20;72.00;;;;;;4965346;28;20180;-85
2023/01/09 04:50:48;;;;;;;9.23;2.03;;;8.30;70.40;;;;;;4966931;28;20160;-84
2023/01/09 04:53:15;;;;;;;10.40;2.17;;;8.30;66.90;;;;;;4977864;28;20191;-85
2023/01/09 04:55:43;;;;;;;10.13;1.87;;;8.40;66.40;;;;;;4967251;28;20185;-86
2023/01/09 04:58:11;;;;;;;7.20;2.03;;;8.40;64.60;;;;;;4965745;28;20220;-84
2023/01/09 05:00:40;;;;;;;5.83;1.70;;;8.50;64.40;;;;;;4969722;28;20176;-83
2023/01/09 05:03:08;;;;;;;8.20;1.90;;;8.30;64.40;;;;;;4977964;28;20161;-84
2023/01/09 05:05:34;;;;;;;8.10;2.03;;;8.40;61.60;;;;;;4978191;28;20176;-85
2023/01/09 05:08:13;;;;;;;9.07;1.60;;;8.40;60.00;;;;;;4980351;28;20160;-85
2023/01/09 05:10:40;;;;;;;6.37;1.93;;;8.50;59.50;;;;;;4965807;28;20181;-86
2023/01/09 05:13:05;;;;;;;7.20;1.60;;;8.50;57.20;;;;;;4958652;28;20640;-86
2023/01/09 05:15:31;;;;;;;8.27;1.63;;;8.40;59.00;;;;;;4957906;28;20222;-86
2023/01/09 05:17:57;;;;;;;9.00;2.37;;;8.40;61.70;;;;;;4957861;28;20672;-86
2023/01/09 05:20:22;;;;;;;6.20;1.57;;;8.30;62.40;;;;;;4958010;28;20316;-86
2023/01/09 05:22:48;;;;;;;5.73;2.00;;;8.40;63.00;;;;;;4957713;28;20184;-86
2023/01/09 05:25:14;;;;;;;7.07;1.70;;;8.40;63.10;;;;;;4957322;28;20180;-84
2023/01/09 05:27:42;;;;;;;13.23;2.30;;;8.40;64.10;;;;;;4957483;28;20185;-86
2023/01/09 05:30:09;;;;;;;7.67;1.80;;;8.40;65.20;;;;;;4957858;28;20176;-86
2023/01/09 05:32:34;;;;;;;6.50;1.53;;;8.40;65.60;;;;;;4974557;28;20179;-86
2023/01/09 05:35:01;;;;;;;10.67;2.00;;;8.40;64.00;;;;;;4977159;28;20651;-86
2023/01/09 05:37:27;;;;;;;9.73;1.97;;;8.40;66.80;;;;;;4978466;28;20223;-86
2023/01/09 05:39:52;;;;;;;6.57;1.53;;;8.50;64.30;;;;;;4986784;28;20270;-85
2023/01/09 05:42:19;;;;;;;10.67;1.80;;;8.40;65.90;;;;;;4985467;28;20202;-86
2023/01/09 05:44:45;;;;;;;5.03;1.53;;;8.30;69.00;;;;;;4979332;28;20632;-85
2023/01/09 05:47:14;;;;;;;5.53;1.50;;;8.20;71.20;;;;;;4976772;28;20187;-85
2023/01/09 05:49:39;;;;;;;6.87;1.60;;;8.40;69.50;;;;;;4976925;28;20203;-85
2023/01/09 05:52:06;;;;;;;6.07;1.57;;;8.50;68.00;;;;;;4977401;28;20168;-86
2023/01/09 05:54:32;;;;;;;5.83;2.13;;;8.40;70.90;;;;;;4977945;28;20227;-85
2023/01/09 05:56:57;;;;;;;6.40;1.40;;;8.30;69.50;;;;;;4978422;28;20625;-85
2023/01/09 05:59:23;;;;;;;6.60;2.03;;;8.30;70.60;;;;;;4993871;28;20196;-84
2023/01/09 06:01:49;;;;;;;9.37;1.87;;;8.30;73.80;;;;;;4985827;28;20180;-85
2023/01/09 06:04:15;;;;;;;2.97;1.37;;;8.30;75.40;;;;;;4980632;28;20187;-87
2023/01/09 06:06:40;;;;;;;4.83;1.77;;;8.30;72.20;;;;;;4980949;28;20551;-87
2023/01/09 06:09:06;;;;;;;6.13;2.10;;;8.40;71.40;;;;;;4980923;28;20175;-87
2023/01/09 06:11:37;;;;;;;6.00;1.60;;;8.40;71.80;;;;;;4979966;28;20636;-86
2023/01/09 06:14:04;;;;;;;7.33;1.80;;;8.40;70.60;;;;;;4978967;28;20271;-86
2023/01/09 06:16:30;;;;;;;3.47;1.30;;;8.40;70.50;;;;;;4979388;28;20203;-87
2023/01/09 06:18:55;;;;;;;6.73;1.63;;;8.40;71.70;;;;;;4976967;28;20707;-87
2023/01/09 06:21:21;;;;;;;5.37;1.53;;;8.30;73.90;;;;;;4976369;28;20182;-87
2023/01/09 06:23:47;;;;;;;9.20;1.60;;;8.30;74.80;;;;;;4976228;28;20266;-87
2023/01/09 06:26:13;;;;;;;4.73;1.40;;;8.50;76.00;;;;;;4978057;28;20235;-86
2023/01/09 06:28:38;;;;;;;4.37;1.20;;;8.40;73.40;;;;;;4979960;28;20174;-86
2023/01/09 06:31:04;;;;;;;5.90;1.37;;;8.40;72.50;;;;;;4979247;28;20534;-86
2023/01/09 06:33:31;;;;;;;5.47;1.87;;;8.40;74.40;;;;;;4977146;28;20644;-86
2023/01/09 06:35:56;;;;;;;5.30;1.37;;;8.40;74.10;;;;;;4976918;28;20172;-85
2023/01/09 06:38:22;;;;;;;4.47;1.23;;;8.40;76.40;;;;;;4978533;28;20218;-86
2023/01/09 06:40:49;;;;;;;6.77;1.70;;;8.40;75.60;;;;;;4976755;28;20671;-85
2023/01/09 06:43:15;;;;;;;5.43;1.87;;;8.40;76.60;;;;;;4976288;28;20190;-88
2023/01/09 06:45:42;;;;;;;7.20;1.43;;;8.30;77.30;;;;;;4977822;28;20239;-89
2023/01/09 06:48:09;;;;;;;4.43;1.70;;;8.30;76.00;;;;;;4981074;28;20230;-88
2023/01/09 06:50:34;;;;;;;4.77;1.63;;;8.50;73.70;;;;;;4981015;28;20218;-86
2023/01/09 06:53:00;;;;;;;4.53;1.70;;;8.40;72.70;;;;;;4977568;28;20184;-88
2023/01/09 06:55:27;;;;;;;3.63;1.17;;;8.60;73.20;;;;;;4976424;28;20190;-88
2023/01/09 06:57:53;;;;;;;6.10;1.43;;;8.40;74.40;;;;;;4975836;28;20274;-88
2023/01/09 07:00:19;;;;;;;5.27;1.47;;;8.40;71.60;;;;;;4977156;28;20222;-88
2023/01/09 07:02:44;;;;;;;5.10;1.67;;;8.40;73.40;;;;;;4975259;28;20230;-85
2023/01/09 07:05:10;;;;;;;4.33;1.60;;;8.40;73.40;;;;;;4975163;28;20212;-88
2023/01/09 07:07:38;;;;;;;5.40;1.10;;;8.40;72.30;;;;;;4975710;28;20702;-85
2023/01/09 07:10:05;;;;;;;5.37;1.60;;;8.40;73.90;;;;;;4979399;28;20315;-86
2023/01/09 07:12:31;;;;;;;4.57;1.27;;;8.30;75.20;;;;;;4979103;28;20179;-85
2023/01/09 07:14:57;;;;;;;4.10;1.03;;;8.40;73.60;;;;;;4968574;28;20652;-87
2023/01/09 07:17:23;;;;;;;4.57;1.20;;;8.40;74.40;;;;;;4976959;28;20220;-87
2023/01/09 07:19:50;;;;;;;3.13;1.10;;;8.40;74.70;;;;;;4975713;28;20311;-86
2023/01/09 07:22:16;;;;;;;5.40;1.53;;;8.40;74.90;;;;;;4974819;28;20263;-87
2023/01/09 07:24:43;;;;;;;3.87;1.30;;;8.50;72.60;;;;;;4976877;28;20163;-84
2023/01/09 07:27:10;;;;;;;3.33;1.03;;;8.60;68.10;;;;;;4983618;28;20179;-88
2023/01/09 07:29:38;;;;;;;6.70;1.30;;;8.50;71.00;;;;;;4996643;28;20176;-86
2023/01/09 07:32:04;;;;;;;5.20;1.30;;;8.50;69.20;;;;;;4996771;28;20565;-89
2023/01/09 07:34:31;;;;;;;3.77;1.43;;;8.40;71.80;;;;;;4997859;28;20186;-87
2023/01/09 07:36:57;;;;;;;5.23;1.30;;;8.50;69.60;;;;;;4966039;28;20215;-87
2023/01/09 07:39:34;;;;;;;5.90;1.73;;;8.50;69.50;;;;;;4980738;28;20651;-88
2023/01/09 07:41:59;;;;;;;3.07;1.00;;;8.50;71.10;;;;;;4982028;28;20199;-86
2023/01/09 07:44:25;;;;;;;4.83;1.20;;;8.50;69.80;;;;;;4997188;28;20183;-85
2023/01/09 07:46:51;;;;;;;6.07;1.67;;;8.50;70.00;;;;;;4997081;28;20191;-85
2023/01/09 07:49:16;;;;;;;3.63;1.33;;;8.40;71.80;;;;;;4995782;28;20177;-85
2023/01/09 07:51:47;;;;;;;5.20;1.53;;;8.60;71.30;;;;;;4983450;28;20187;-86
2023/01/09 07:54:13;;;;;;;3.03;1.07;;;8.50;74.10;;;;;;4984288;28;20175;-83
2023/01/09 07:56:49;;;;;;;6.20;1.93;;;8.40;74.30;;;;;;4983637;28;20266;-86
2023/01/09 07:59:15;;;;;;;5.50;1.90;;;8.40;76.90;;;;;;4979840;28;20209;-86
2023/01/09 08:01:40;;;;;;;6.57;1.90;;;8.50;80.00;;;;;;4975734;28;20644;-86
2023/01/09 08:04:06;;;;;;;4.73;1.50;;;8.50;79.00;;;;;;4975068;28;20226;-86
2023/01/09 08:06:32;;;;;;;4.77;1.43;;;8.40;80.00;;;;;;4974415;28;20183;-86
2023/01/09 08:08:58;;;;;;;6.17;1.50;;;8.40;81.10;;;;;;4976456;28;20230;-86
2023/01/09 08:11:24;;;;;;;6.73;2.10;;;8.40;86.00;;;;;;4973462;28;20187;-86
2023/01/09 08:13:50;;;;;;;7.20;1.97;;;8.30;87.00;;;;;;4974594;28;20171;-85
2023/01/09 08:16:16;;;;;;;5.40;1.87;;;8.40;86.70;;;;;;4974441;28;20231;-84
2023/01/09 08:18:42;;;;;;;9.40;1.93;;;8.50;86.10;;;;;;4986624;28;20187;-85
2023/01/09 08:21:09;;;;;;;6.93;1.80;;;8.40;85.40;;;;;;4990718;28;20179;-86
2023/01/09 08:23:35;;;;;;;7.63;1.93;;;8.40;83.60;;;;;;4976482;28;20239;-86
2023/01/09 08:26:01;;;;;;;7.80;2.17;;;8.40;82.40;;;;;;4976023;28;20160;-86
2023/01/09 08:28:27;;;;;;;6.07;1.90;;;8.40;80.60;;;;;;4979516;28;20222;-85
2023/01/09 08:30:53;;;;;;;6.30;1.63;;;8.40;79.50;;;;;;4984579;28;20176;-86
2023/01/09 08:33:20;;;;;;;4.97;1.63;;;8.30;82.40;;;;;;4988599;28;20182;-87
2023/01/09 08:35:48;;;;;;;4.47;1.33;;;8.40;80.60;;;;;;4995374;28;20188;-88
2023/01/09 08:38:14;;;;;;;2.67;1.37;;;8.40;79.60;;;;;;4997101;28;20222;-85
2023/01/09 08:40:41;;;;;;;4.53;1.57;;;8.40;76.50;;;;;;4989570;28;20203;-87
2023/01/09 08:48:40;;;;;;;3.60;1.13;;;8.30;75.70;;;;;;4976653;28;20719;-86
2023/01/09 08:51:05;;;;;;;1.47;0.90;;;8.30;74.60;;;;;;4979492;28;20171;-85
2023/01/09 08:53:32;;;;;;;4.53;1.00;;;8.30;70.30;;;;;;4987068;28;20191;-86
2023/01/09 08:55:58;;;;;;;4.10;1.33;;;8.30;69.60;;;;;;4989384;28;20206;-85
2023/01/09 08:58:23;;;;;;;6.30;0.97;;;8.30;69.20;;;;;;4998419;28;20301;-85
2023/01/09 09:00:49;;;;;;;2.27;0.70;;;8.20;70.30;;;;;;4999726;28;20626;-85
2023/01/09 09:03:16;;;;;;;2.03;1.17;;;8.20;69.40;;;;;;5000404;28;20646;-84
2023/01/09 09:05:41;;;;;;;2.23;0.90;;;8.30;68.10;;;;;;5000347;28;20186;-85
2023/01/09 09:08:07;;;;;;;1.53;0.90;;;8.40;67.50;;;;;;5001337;28;20729;-86
2023/01/09 09:10:33;;;;;;;1.43;0.83;;;8.40;66.30;;;;;;5000810;28;20167;-86
2023/01/09 09:12:59;;;;;;;1.93;0.90;;;8.30;66.80;;;;;;4999752;28;20182;-86
2023/01/09 09:15:25;;;;;;;2.17;0.70;;;8.30;66.10;;;;;;4998675;28;20179;-85
2023/01/09 09:17:53;;;;;;;3.90;0.93;;;8.30;67.20;;;;;;4995812;28;20211;-85
2023/01/09 09:20:24;;;;;;;2.23;1.10;;;8.30;67.20;;;;;;4978731;28;20187;-85
2023/01/09 09:22:50;;;;;;;2.43;1.23;;;8.30;68.80;;;;;;4977391;28;20282;-85
2023/01/09 09:25:17;;;;;;;2.33;1.00;;;8.20;72.10;;;;;;4977155;28;20188;-84
2023/01/09 09:27:43;;;;;;;2.07;1.00;;;8.10;78.00;;;;;;4978013;28;20625;-84
2023/01/09 09:30:11;;;;;;;4.70;1.27;;;8.20;78.00;;;;;;4987956;28;20651;-86
2023/01/09 09:32:38;;;;;;;3.20;1.00;;;8.00;80.30;;;;;;4987162;28;20215;-86
2023/01/09 09:35:04;;;;;;;3.07;0.97;;;8.00;83.70;;;;;;4988234;28;20167;-85
2023/01/09 09:37:30;;;;;;;4.47;0.90;;;8.10;82.00;;;;;;4994411;28;20233;-85
2023/01/09 09:39:55;;;;;;;3.07;0.90;;;8.20;81.60;;;;;;4981941;28;20270;-86
2023/01/09 09:45:49;;;;;;;4.57;1.40;;;8.20;80.30;;;;;;4977051;28;20277;-87
2023/01/09 09:48:48;;;;;;;4.17;1.10;;;8.10;83.00;;;;;;4981646;28;20189;-86
2023/01/09 09:51:17;;;;;;;5.10;1.50;;;8.10;80.30;;;;;;4962327;29;20167;-85
2023/01/09 09:54:30;;;;;;;3.60;1.20;;;8.10;80.20;;;;;;4987866;28;20255;-86
2023/01/09 09:56:59;;;;;;;5.43;1.20;;;8.20;82.60;;;;;;4942846;28;20244;-86
2023/01/09 09:59:32;;;;;;;3.93;1.10;;;8.10;80.10;;;;;;4944202;28;20181;-87
2023/01/09 10:02:22;;;;;;;2.73;0.97;;;8.10;81.60;;;;;;4953793;28;20216;-86
2023/01/09 10:04:57;;;;;;;3.23;1.40;;;8.10;82.40;;;;;;4975954;28;20178;-86
2023/01/09 10:07:30;;;;;;;3.07;0.80;;;8.20;80.60;;;;;;4975744;28;20225;-86
2023/01/09 10:10:03;;;;;;;2.23;0.73;;;8.10;81.70;;;;;;4976105;28;20182;-86
2023/01/09 10:12:51;;;;;;;2.47;1.00;;;8.00;80.00;;;;;;4974838;28;20175;-87
2023/01/09 10:15:36;;;;;;;5.77;1.27;;;8.10;81.40;;;;;;4971160;28;20252;-87
2023/01/09 10:18:21;;;;;;;1.60;1.00;;;8.10;78.00;;;;;;4987681;28;20215;-89
2023/01/09 10:20:55;;;;;;;3.97;0.80;;;8.10;78.10;;;;;;4974493;28;20588;-89
2023/01/09 10:23:20;;;;;;;1.90;0.90;;;8.10;78.00;;;;;;4980434;28;20187;-89
2023/01/09 10:26:09;;;;;;;2.13;0.70;;;8.10;78.10;;;;;;4980498;28;20624;-90
2023/01/09 10:28:57;;;;;;;2.87;0.97;;;8.20;78.00;;;;;;4981140;28;20187;-89
2023/01/09 10:31:28;;;;;;;3.20;1.03;;;8.20;76.70;;;;;;4988123;28;20172;-89
2023/01/09 10:34:29;;;;;;;1.43;0.80;;;8.20;76.30;;;;;;4985495;28;20175;-86
2023/01/09 10:37:11;;;;;;;2.17;1.10;;;8.10;77.30;;;;;;4982424;28;20212;-89
2023/01/09 10:39:49;;;;;;;2.43;1.00;;;8.10;82.30;;;;;;4983485;28;20174;-89
2023/01/09 10:42:47;;;;;;;3.67;1.10;;;8.20;82.00;;;;;;4975790;28;20211;-87
2023/01/09 10:45:33;;;;;;;2.10;0.80;;;8.20;80.50;;;;;;4927906;28;20564;-89
2023/01/09 10:48:13;;;;;;;2.10;0.87;;;8.10;83.50;;;;;;4982217;28;20195;-89
2023/01/09 10:50:44;;;;;;;2.00;0.93;;;8.10;85.90;;;;;;4964964;28;20235;-89
2023/01/09 10:53:42;;;;;;;2.77;0.73;;;8.10;86.70;;;;;;4972667;28;20215;-88
2023/01/09 10:56:17;;;;;;;4.07;1.40;;;8.10;86.00;;;;;;4973684;28;20168;-89
2023/01/09 10:58:46;;;;;;;2.13;0.97;;;8.10;87.90;;;;;;4978804;28;20208;-85
2023/01/09 11:01:14;;;;;;;3.23;1.37;;;8.20;86.70;;;;;;4979585;28;20200;-87
2023/01/09 11:03:40;;;;;;;1.70;1.03;;;8.30;86.90;;;;;;4979565;28;20156;-86
2023/01/09 11:06:19;;;;;;;5.53;1.77;;;8.20;90.20;;;;;;4972681;28;20176;-91
2023/01/09 11:08:55;;;;;;;2.10;1.17;;;8.10;91.10;;;;;;4964646;28;20215;-90
2023/01/09 11:11:44;;;;;;;2.77;1.13;;;8.20;91.60;;;;;;4964684;28;20168;-88
2023/01/09 11:14:26;;;;;;;2.73;1.27;;;8.30;89.60;;;;;;4969238;28;20200;-88
2023/01/09 11:16:55;;;;;;;4.30;1.30;;;8.30;88.20;;;;;;4964313;28;20223;-85
2023/01/09 11:19:27;;;;;;;4.27;1.40;;;8.10;90.50;;;;;;4976233;28;20172;-85
2023/01/09 11:22:28;;;;;;;6.80;1.77;;;8.10;93.10;;;;;;4997516;28;20160;-84
2023/01/09 11:25:01;;;;;;;2.10;1.30;;;8.10;94.10;;;;;;4937647;28;20192;-87
2023/01/09 11:27:26;;;;;;;2.13;1.30;;;8.10;93.70;;;;;;4954425;29;20196;-86
2023/01/09 11:30:26;;;;;;;2.80;1.30;;;8.20;92.70;;;;;;4956734;28;20187;-87
2023/01/09 11:32:54;;;;;;;3.07;1.30;;;8.30;91.40;;;;;;4924128;29;20284;-86
2023/01/09 11:35:30;;;;;;;2.83;1.23;;;8.30;91.90;;;;;;4953405;28;20577;-86
2023/01/09 11:38:14;;;;;;;3.10;1.50;;;8.30;91.70;;;;;;4968095;28;20290;-88
2023/01/09 11:40:50;;;;;;;2.17;1.20;;;8.30;92.00;;;;;;4975966;28;20201;-85
2023/01/09 11:43:20;;;;;;;2.93;1.40;;;8.40;93.10;;;;;;4975796;28;20546;-88
2023/01/09 11:45:55;;;;;;;3.73;1.70;;;8.20;94.30;;;;;;4966450;28;20177;-87
2023/01/09 11:48:56;;;;;;;5.33;2.83;;;8.30;95.80;;;;;;4956237;28;20180;-88
2023/01/09 11:51:35;;;;;;;5.93;1.77;;;8.20;96.70;;;;;;4962528;28;20246;-85
2023/01/09 11:54:13;;;;;;;3.30;1.60;;;8.30;97.20;;;;;;4962717;28;20262;-86
2023/01/09 11:56:39;;;;;;;5.17;1.80;;;8.30;96.80;;;;;;4962424;28;20211;-85
2023/01/09 11:59:14;;;;;;;4.53;1.70;;;8.30;97.10;;;;;;4959514;28;20189;-85
2023/01/09 12:02:01;;;;;;;5.47;1.73;;;8.30;98.10;;;;;;4955739;28;20775;-83
2023/01/09 12:05:07;;;;;;;5.53;2.00;;;8.40;97.20;;;;;;4973857;28;20176;-85
2023/01/09 12:07:52;;;;;;;4.10;1.60;;;8.40;95.10;;;;;;4957743;28;20219;-85
2023/01/09 12:10:48;;;;;;;4.40;2.00;;;8.40;94.70;;;;;;4957477;28;20177;-87
2023/01/09 12:13:40;;;;;;;5.17;1.80;;;8.30;95.60;;;;;;4957133;28;20204;-87
2023/01/09 12:16:37;;;;;;;4.33;1.67;;;8.40;95.60;;;;;;4955244;28;20723;-87
2023/01/09 12:19:36;;;;;;;3.93;1.67;;;8.40;95.20;;;;;;4965860;28;20200;-87
2023/01/09 12:22:40;;;;;;;5.53;2.00;;;8.40;95.90;;;;;;4969386;28;20194;-84
2023/01/09 12:25:12;;;;;;;5.53;1.90;;;8.40;95.80;;;;;;4964750;28;20176;-86
2023/01/09 12:28:09;;;;;;;3.67;1.80;;;8.50;95.10;;;;;;4959724;28;20187;-85
2023/01/09 12:30:59;;;;;;;5.77;2.30;;;8.60;93.20;;;;;;4957499;29;20180;-85
2023/01/09 12:34:06;;;;;;;4.53;1.70;;;8.70;92.30;;;;;;4979935;28;20180;-85
2023/01/09 12:36:57;;;;;;;6.37;2.20;;;8.90;90.90;;;;;;4960796;28;20268;-86
2023/01/09 12:39:44;;;;;;;5.53;2.10;;;9.10;87.10;;;;;;4945615;28;20244;-87
2023/01/09 12:42:29;;;;;;;6.43;2.20;;;9.10;85.60;;;;;;4968921;28;20207;-86
2023/01/09 12:45:15;;;;;;;6.37;2.40;;;9.10;85.30;;;;;;4978085;28;20721;-86
2023/01/09 12:47:44;;;;;;;5.47;2.57;;;9.10;81.60;;;;;;4977536;28;20175;-85
2023/01/09 12:50:31;;;;;;;8.73;3.10;;;9.10;77.70;;;;;;4978069;28;20800;-86
2023/01/09 12:53:20;;;;;;;6.77;2.77;;;9.20;76.30;;;;;;4975198;28;20171;-85
2023/01/09 12:56:10;;;;;;;6.07;2.20;;;9.20;75.60;;;;;;4960586;28;20168;-88
2023/01/09 12:58:49;;;;;;;5.37;2.53;;;9.20;76.10;;;;;;4967476;28;20250;-88
2023/01/09 13:01:28;;;;;;;6.63;2.20;;;9.20;77.30;;;;;;4981808;28;20259;-85
2023/01/09 13:04:15;;;;;;;14.87;2.40;;;9.30;77.10;;;;;;4974805;28;20188;-86
2023/01/09 13:06:50;;;;;;;8.10;2.80;;;9.30;72.20;;;;;;4958974;28;20168;-86
2023/01/09 13:09:46;;;;;;;6.43;2.40;;;9.40;69.70;;;;;;4973598;28;20188;-87
2023/01/09 13:12:17;;;;;;;6.67;2.17;;;9.40;64.00;;;;;;4978453;28;20173;-87
2023/01/09 13:14:49;;;;;;;6.03;2.10;;;9.40;64.90;;;;;;4975440;28;20172;-87
2023/01/09 13:17:49;;;;;;;7.87;2.10;;;9.40;65.60;;;;;;4963046;28;20294;-88
2023/01/09 13:20:26;;;;;;;6.30;2.53;;;9.40;63.10;;;;;;4967920;28;20188;-87
2023/01/09 13:22:53;;;;;;;9.70;2.67;;;9.50;60.00;;;;;;4978854;28;20182;-86
2023/01/09 13:25:40;;;;;;;7.80;2.70;;;9.70;57.20;;;;;;4981341;28;20540;-87
2023/01/09 13:28:30;;;;;;;6.20;2.40;;;9.80;53.70;;;;;;4979169;28;20679;-86
2023/01/09 13:31:17;;;;;;;7.57;3.00;;;9.80;52.00;;;;;;4979808;28;20176;-86
2023/01/09 13:33:57;;;;;;;7.57;3.00;;;10.00;50.60;;;;;;4980939;28;20172;-86
2023/01/09 13:36:32;;;;;;;8.63;3.27;;;9.90;42.90;;;;;;4981853;28;20168;-86
2023/01/09 13:38:59;;;;;;;7.73;3.00;;;9.90;43.00;;;;;;4996090;28;20171;-85
2023/01/09 13:44:24;;;;;;;9.00;2.60;;;9.80;43.40;;;;;;4984078;28;20174;-86